createdAt,value
2019-06-07T00:05:01.913Z,24
2019-06-07T00:10:04.463Z,23
2019-06-07T00:15:11.488Z,23
2019-06-07T00:20:13.335Z,25
2019-06-07T00:25:14.790Z,24
2019-06-07T00:30:40.445Z,23
2019-06-07T00:35:19.320Z,23
2019-06-07T00:40:28.542Z,25
2019-06-07T00:45:23.907Z,26
2019-06-07T00:50:24.496Z,25
2019-06-07T00:55:27.591Z,24
2019-06-07T01:00:28.940Z,21
2019-06-07T01:05:31.745Z,19
2019-06-07T01:10:52.107Z,22
2019-06-07T01:15:36.285Z,25
2019-06-07T01:20:38.865Z,26
2019-06-07T01:25:43.539Z,26
2019-06-07T01:30:43.647Z,26
2019-06-07T01:35:46.129Z,25
2019-06-07T01:40:48.571Z,25
2019-06-07T01:45:51.184Z,25
2019-06-07T01:50:53.481Z,26
2019-06-07T01:55:55.946Z,25
2019-06-07T02:00:58.410Z,22
2019-06-07T02:06:00.897Z,23
2019-06-07T02:11:03.321Z,20
2019-06-07T02:16:05.776Z,22
2019-06-07T02:21:08.227Z,21
2019-06-07T02:26:10.708Z,21
2019-06-07T02:31:13.170Z,21
2019-06-07T02:36:15.628Z,22
2019-06-07T02:41:18.082Z,24
2019-06-07T02:46:26.148Z,26
2019-06-07T02:51:24.315Z,27
2019-06-07T02:56:38.900Z,25
2019-06-07T03:01:31.248Z,27
2019-06-07T03:06:34.149Z,23
2019-06-07T03:11:35.982Z,24
2019-06-07T03:16:37.181Z,25
2019-06-07T03:21:41.428Z,21
2019-06-07T03:27:23.941Z,23
2019-06-07T03:31:47.291Z,23
2019-06-07T03:36:45.094Z,22
2019-06-07T03:42:05.005Z,24
2019-06-07T03:46:50.007Z,24
2019-06-07T03:51:52.616Z,24
2019-06-07T03:56:54.931Z,23
2019-06-07T04:01:57.429Z,23
2019-06-07T04:07:01.100Z,22
2019-06-07T04:12:02.320Z,24
2019-06-07T04:17:04.898Z,23
2019-06-07T04:22:07.250Z,23
2019-06-07T04:27:09.693Z,21
2019-06-07T04:32:12.187Z,21
2019-06-07T04:37:14.652Z,20
2019-06-07T04:42:17.150Z,20
2019-06-07T04:47:19.514Z,19
2019-06-07T04:52:21.986Z,22
2019-06-07T04:57:24.560Z,21
2019-06-07T05:02:26.903Z,22
2019-06-07T05:07:30.869Z,21
2019-06-07T05:12:32.604Z,21
2019-06-07T05:17:34.693Z,23
2019-06-07T05:22:40.601Z,21
2019-06-07T05:27:42.273Z,21
2019-06-07T05:32:45.295Z,19
2019-06-07T05:37:45.922Z,19
2019-06-07T05:42:46.891Z,19
2019-06-07T05:47:50.901Z,18
2019-06-07T05:52:51.473Z,18
2019-06-07T05:57:53.942Z,19
2019-06-07T06:03:04.595Z,19
2019-06-07T06:07:58.941Z,19
2019-06-07T06:13:01.302Z,18
2019-06-07T06:18:03.829Z,19
2019-06-07T06:23:06.270Z,19
2019-06-07T06:28:11.909Z,17
2019-06-07T06:33:27.406Z,20
2019-06-07T06:38:13.626Z,17
2019-06-07T06:43:16.066Z,17
2019-06-07T06:48:18.535Z,15
2019-06-07T06:53:21.048Z,17
2019-06-07T06:58:23.442Z,15
2019-06-07T07:08:28.387Z,16
2019-06-07T07:13:30.869Z,16
2019-06-07T07:18:33.324Z,15
2019-06-07T07:23:35.800Z,16
2019-06-07T07:28:38.187Z,14
2019-06-07T07:38:45.501Z,15
2019-06-07T07:43:51.779Z,13
2019-06-07T07:48:48.472Z,15
2019-06-07T07:54:00.507Z,14
2019-06-07T07:58:55.988Z,15
2019-06-07T08:03:56.515Z,16
2019-06-07T08:08:58.991Z,16
2019-06-07T08:14:00.293Z,15
2019-06-07T08:19:04.212Z,17
2019-06-07T08:24:05.592Z,16
2019-06-07T08:29:07.827Z,16
2019-06-07T08:34:10.120Z,15
2019-06-07T08:39:12.589Z,15
2019-06-07T08:44:23.134Z,15
2019-06-07T08:49:17.531Z,15
2019-06-07T08:54:22.605Z,14
2019-06-07T08:59:22.429Z,14
2019-06-07T09:04:24.958Z,12
2019-06-07T09:09:27.424Z,12
2019-06-07T09:14:29.808Z,12
2019-06-07T09:19:32.271Z,10
2019-06-07T09:24:34.744Z,11
2019-06-07T09:29:37.215Z,10
2019-06-07T09:34:39.791Z,10
2019-06-07T09:44:44.582Z,12
2019-06-07T09:49:47.034Z,10
2019-06-07T09:55:19.421Z,12
2019-06-07T09:59:51.992Z,11
2019-06-07T10:04:54.519Z,10
2019-06-07T10:10:12.234Z,10
2019-06-07T10:15:00.555Z,7
2019-06-07T10:20:02.478Z,7
2019-06-07T10:25:04.456Z,7
2019-06-07T10:30:08.048Z,7
2019-06-07T10:35:10.085Z,6
2019-06-07T10:40:11.678Z,7
2019-06-07T10:45:14.151Z,7
2019-06-07T10:50:16.658Z,7
2019-06-07T11:05:25.152Z,7
2019-06-07T11:10:26.444Z,7
2019-06-07T11:15:28.886Z,6
2019-06-07T11:20:31.300Z,6
2019-06-07T11:25:33.766Z,5
2019-06-07T11:30:36.364Z,6
2019-06-07T11:35:38.711Z,5
2019-06-07T11:45:43.608Z,5
2019-06-07T11:50:46.054Z,5
2019-06-07T11:55:48.617Z,6
2019-06-07T12:00:51.048Z,5
2019-06-07T12:05:53.625Z,5
2019-06-07T12:10:55.872Z,5
2019-06-07T12:15:58.466Z,5
2019-06-07T12:21:00.827Z,5
2019-06-07T12:26:03.385Z,5
2019-06-07T12:31:05.858Z,5
2019-06-07T12:36:08.209Z,5
2019-06-07T12:41:10.624Z,6
2019-06-07T12:46:17.060Z,6
2019-06-07T12:51:17.108Z,5
2019-06-07T12:56:18.044Z,5
2019-06-07T13:01:20.934Z,6
2019-06-07T13:06:23.676Z,6
2019-06-07T13:11:29.410Z,6
2019-06-07T13:16:28.436Z,6
2019-06-07T13:21:30.310Z,6
2019-06-07T13:26:32.788Z,6
2019-06-07T13:31:35.301Z,6
2019-06-07T13:36:37.710Z,6
2019-06-07T13:41:42.757Z,6
2019-06-07T13:46:42.619Z,6
2019-06-07T13:51:45.086Z,6
2019-06-07T13:57:01.165Z,7
2019-06-07T14:01:50.094Z,8
2019-06-07T14:06:52.522Z,8
2019-06-07T14:11:54.936Z,8
2019-06-07T14:16:57.974Z,9
2019-06-07T14:21:59.907Z,8
2019-06-07T14:27:02.292Z,13
2019-06-07T14:32:04.765Z,9
2019-06-07T14:37:07.238Z,12
2019-06-07T14:42:10.538Z,10
2019-06-07T14:47:12.158Z,9
2019-06-07T14:52:14.903Z,9
2019-06-07T14:57:17.051Z,9
2019-06-07T15:02:19.505Z,9
2019-06-07T15:07:21.973Z,8
2019-06-07T15:12:25.757Z,10
2019-06-07T15:17:26.933Z,8
2019-06-07T15:22:30.170Z,9
2019-06-07T15:27:31.797Z,9
2019-06-07T15:32:35.551Z,9
2019-06-07T15:37:36.783Z,10
2019-06-07T15:42:49.625Z,9
2019-06-07T15:47:41.686Z,9
2019-06-07T15:52:44.092Z,11
2019-06-07T15:57:46.542Z,9
2019-06-07T16:02:49.040Z,10
2019-06-07T16:07:51.577Z,9
2019-06-07T16:12:59.988Z,11
2019-06-07T16:17:56.450Z,11
2019-06-07T16:22:58.891Z,9
2019-06-07T16:28:01.347Z,10
2019-06-07T16:33:03.762Z,11
2019-06-07T16:38:06.321Z,10
2019-06-07T16:43:16.506Z,10
2019-06-07T16:48:11.169Z,10
2019-06-07T16:53:13.604Z,10
2019-06-07T16:58:16.072Z,9
2019-06-07T17:03:18.598Z,9
2019-06-07T17:08:21.073Z,10
2019-06-07T17:13:32.746Z,10
2019-06-07T17:18:25.989Z,11
2019-06-07T17:23:28.371Z,10
2019-06-07T17:28:30.827Z,11
2019-06-07T17:33:33.262Z,10
2019-06-07T17:38:35.739Z,10
2019-06-07T17:43:49.176Z,10
2019-06-07T17:48:41.417Z,11
2019-06-07T17:53:43.842Z,10
2019-06-07T17:58:46.372Z,10
2019-06-07T18:03:49.129Z,10
2019-06-07T18:08:51.638Z,10
2019-06-07T18:14:08.369Z,10
2019-06-07T18:18:57.050Z,10
2019-06-07T18:23:58.642Z,10
2019-06-07T18:29:00.359Z,9
2019-06-07T18:34:02.803Z,10
2019-06-07T18:39:05.229Z,10
2019-06-07T18:44:20.685Z,11
2019-06-07T18:49:10.173Z,11
2019-06-07T18:54:12.619Z,11
2019-06-07T18:59:15.101Z,10
2019-06-07T19:04:17.505Z,10
2019-06-07T19:09:19.982Z,15
2019-06-07T19:14:36.237Z,12
2019-06-07T19:19:24.906Z,13
2019-06-07T19:24:27.676Z,10
2019-06-07T19:34:32.293Z,11
2019-06-07T19:39:34.730Z,11
2019-06-07T19:44:49.632Z,12
2019-06-07T19:49:39.693Z,11
2019-06-07T19:54:42.119Z,12
2019-06-07T19:59:44.555Z,11
2019-06-07T20:04:47.061Z,11
2019-06-07T20:09:49.489Z,13
2019-06-07T20:14:53.979Z,11
2019-06-07T20:19:54.426Z,10
2019-06-07T20:24:56.857Z,11
2019-06-07T20:30:00.119Z,9
2019-06-07T20:35:01.904Z,10
2019-06-07T20:40:19.390Z,10
2019-06-07T20:45:07.949Z,10
2019-06-07T20:50:09.162Z,9
2019-06-07T20:55:11.707Z,8
2019-06-07T21:00:20.888Z,9
2019-06-07T21:05:16.514Z,8
2019-06-07T21:10:19.063Z,9
2019-06-07T21:15:21.423Z,9
2019-06-07T21:20:24.038Z,10
2019-06-07T21:25:26.354Z,8
2019-06-07T21:30:28.836Z,8
2019-06-07T21:35:31.300Z,9
2019-06-07T21:40:33.801Z,9
2019-06-07T21:45:36.292Z,8
2019-06-07T21:50:38.645Z,8
2019-06-07T21:55:41.183Z,8
2019-06-07T22:00:43.652Z,9
2019-06-07T22:05:48.545Z,9
2019-06-07T22:10:48.500Z,9
2019-06-07T22:15:50.968Z,9
2019-06-07T22:20:53.415Z,8
2019-06-07T22:25:55.844Z,8
2019-06-07T22:30:58.295Z,8
2019-06-07T22:36:00.797Z,8
2019-06-07T22:41:03.245Z,9
2019-06-07T22:46:06.714Z,8
2019-06-07T22:51:09.331Z,9
2019-06-07T22:56:11.589Z,8
2019-06-07T23:01:14.453Z,8
2019-06-07T23:06:16.698Z,9
2019-06-07T23:11:19.390Z,8
2019-06-07T23:16:20.439Z,8
2019-06-07T23:21:22.890Z,8
2019-06-07T23:26:25.335Z,8
2019-06-07T23:31:27.790Z,8
2019-06-07T23:36:30.265Z,9
2019-06-07T23:41:32.719Z,8
2019-06-07T23:46:35.183Z,7
2019-06-07T23:51:37.677Z,3
2019-06-07T23:56:40.099Z,3
